sensor_id;sensor_type;location;lat;lon;timestamp;temperature;humidity
37528;DHT22;23372;52.050;4.810;2023-11-19T00:00:17;13.70;99.90
37528;DHT22;23372;52.050;4.810;2023-11-19T00:02:42;13.70;99.90
37528;DHT22;23372;52.050;4.810;2023-11-19T00:05:09;13.70;99.90
37528;DHT22;23372;52.050;4.810;2023-11-19T00:07:37;13.60;99.90
37528;DHT22;23372;52.050;4.810;2023-11-19T00:10:02;13.60;99.90
37528;DHT22;23372;52.050;4.810;2023-11-19T00:12:32;13.60;99.90
37528;DHT22;23372;52.050;4.810;2023-11-19T00:14:58;13.60;99.90
37528;DHT22;23372;52.050;4.810;2023-11-19T00:17:23;13.60;99.90
37528;DHT22;23372;52.050;4.810;2023-11-19T00:19:49;13.70;99.90
37528;DHT22;23372;52.050;4.810;2023-11-19T00:22:16;13.60;99.90
37528;DHT22;23372;52.050;4.810;2023-11-19T00:24:42;13.60;99.90
37528;DHT22;23372;52.050;4.810;2023-11-19T00:27:07;13.60;99.90
37528;DHT22;23372;52.050;4.810;2023-11-19T00:29:33;13.50;99.90
37528;DHT22;23372;52.050;4.810;2023-11-19T00:31:59;13.60;99.90
37528;DHT22;23372;52.050;4.810;2023-11-19T00:34:24;13.60;99.90
37528;DHT22;23372;52.050;4.810;2023-11-19T00:36:50;13.60;99.90
37528;DHT22;23372;52.050;4.810;2023-11-19T00:39:16;13.60;99.90
37528;DHT22;23372;52.050;4.810;2023-11-19T00:41:41;13.60;99.90
37528;DHT22;23372;52.050;4.810;2023-11-19T00:44:07;13.50;99.90
37528;DHT22;23372;52.050;4.810;2023-11-19T00:46:32;13.50;99.90
37528;DHT22;23372;52.050;4.810;2023-11-19T00:48:58;13.50;99.90
37528;DHT22;23372;52.050;4.810;2023-11-19T00:51:25;13.40;99.90
37528;DHT22;23372;52.050;4.810;2023-11-19T00:53:52;13.40;99.90
37528;DHT22;23372;52.050;4.810;2023-11-19T00:56:19;13.40;99.90
37528;DHT22;23372;52.050;4.810;2023-11-19T00:58:45;13.30;99.90
37528;DHT22;23372;52.050;4.810;2023-11-19T01:01:11;13.40;99.90
37528;DHT22;23372;52.050;4.810;2023-11-19T01:03:37;13.40;99.90
37528;DHT22;23372;52.050;4.810;2023-11-19T01:06:03;13.40;99.90
37528;DHT22;23372;52.050;4.810;2023-11-19T01:08:29;13.50;99.90
37528;DHT22;23372;52.050;4.810;2023-11-19T01:10:54;13.40;99.90
37528;DHT22;23372;52.050;4.810;2023-11-19T01:13:20;13.40;99.90
37528;DHT22;23372;52.050;4.810;2023-11-19T01:15:46;13.30;99.90
37528;DHT22;23372;52.050;4.810;2023-11-19T01:18:12;13.30;99.90
37528;DHT22;23372;52.050;4.810;2023-11-19T01:20:38;13.30;99.90
37528;DHT22;23372;52.050;4.810;2023-11-19T01:23:04;13.30;99.90
37528;DHT22;23372;52.050;4.810;2023-11-19T01:25:30;13.30;99.90
37528;DHT22;23372;52.050;4.810;2023-11-19T01:27:56;13.30;99.90
37528;DHT22;23372;52.050;4.810;2023-11-19T01:30:24;13.20;99.90
37528;DHT22;23372;52.050;4.810;2023-11-19T01:32:50;13.10;99.90
37528;DHT22;23372;52.050;4.810;2023-11-19T01:35:15;13.10;99.90
37528;DHT22;23372;52.050;4.810;2023-11-19T01:37:41;13.10;99.90
37528;DHT22;23372;52.050;4.810;2023-11-19T01:40:07;13.10;99.90
37528;DHT22;23372;52.050;4.810;2023-11-19T01:42:39;13.00;99.90
37528;DHT22;23372;52.050;4.810;2023-11-19T01:45:06;12.90;99.90
37528;DHT22;23372;52.050;4.810;2023-11-19T01:47:35;12.90;99.90
37528;DHT22;23372;52.050;4.810;2023-11-19T01:50:03;12.90;99.90
37528;DHT22;23372;52.050;4.810;2023-11-19T01:52:34;12.90;99.90
37528;DHT22;23372;52.050;4.810;2023-11-19T01:55:02;12.90;99.90
37528;DHT22;23372;52.050;4.810;2023-11-19T01:57:28;12.80;99.90
37528;DHT22;23372;52.050;4.810;2023-11-19T01:59:54;12.80;99.90
37528;DHT22;23372;52.050;4.810;2023-11-19T02:02:19;12.70;99.90
37528;DHT22;23372;52.050;4.810;2023-11-19T02:04:47;12.70;99.90
37528;DHT22;23372;52.050;4.810;2023-11-19T02:07:13;12.60;99.90
37528;DHT22;23372;52.050;4.810;2023-11-19T02:09:42;12.60;99.90
37528;DHT22;23372;52.050;4.810;2023-11-19T02:12:08;12.60;99.90
37528;DHT22;23372;52.050;4.810;2023-11-19T02:14:35;12.50;99.90
37528;DHT22;23372;52.050;4.810;2023-11-19T02:17:01;12.70;99.90
37528;DHT22;23372;52.050;4.810;2023-11-19T02:19:26;12.60;99.90
37528;DHT22;23372;52.050;4.810;2023-11-19T02:21:53;12.60;99.90
37528;DHT22;23372;52.050;4.810;2023-11-19T02:24:22;12.60;99.90
37528;DHT22;23372;52.050;4.810;2023-11-19T02:26:59;12.70;99.90
37528;DHT22;23372;52.050;4.810;2023-11-19T02:29:27;12.60;99.90
37528;DHT22;23372;52.050;4.810;2023-11-19T02:31:53;12.60;99.90
37528;DHT22;23372;52.050;4.810;2023-11-19T02:34:20;12.60;99.90
37528;DHT22;23372;52.050;4.810;2023-11-19T02:36:47;12.60;99.90
37528;DHT22;23372;52.050;4.810;2023-11-19T02:39:12;12.50;99.90
37528;DHT22;23372;52.050;4.810;2023-11-19T02:41:39;12.50;99.90
37528;DHT22;23372;52.050;4.810;2023-11-19T02:44:06;12.50;99.90
37528;DHT22;23372;52.050;4.810;2023-11-19T02:46:31;12.50;99.90
37528;DHT22;23372;52.050;4.810;2023-11-19T02:48:57;12.40;99.90
37528;DHT22;23372;52.050;4.810;2023-11-19T02:51:23;12.40;99.90
37528;DHT22;23372;52.050;4.810;2023-11-19T02:53:49;12.30;99.90
37528;DHT22;23372;52.050;4.810;2023-11-19T02:56:14;12.30;99.90
37528;DHT22;23372;52.050;4.810;2023-11-19T02:58:51;12.30;99.90
37528;DHT22;23372;52.050;4.810;2023-11-19T03:01:26;12.40;99.90
37528;DHT22;23372;52.050;4.810;2023-11-19T03:03:56;12.30;99.90
37528;DHT22;23372;52.050;4.810;2023-11-19T03:06:23;12.20;99.90
37528;DHT22;23372;52.050;4.810;2023-11-19T03:08:49;12.20;99.90
37528;DHT22;23372;52.050;4.810;2023-11-19T03:11:15;12.20;99.90
37528;DHT22;23372;52.050;4.810;2023-11-19T03:13:40;12.20;99.90
37528;DHT22;23372;52.050;4.810;2023-11-19T03:16:07;12.20;99.90
37528;DHT22;23372;52.050;4.810;2023-11-19T03:18:32;12.20;99.90
37528;DHT22;23372;52.050;4.810;2023-11-19T03:20:58;12.20;99.90
37528;DHT22;23372;52.050;4.810;2023-11-19T03:23:24;12.20;99.90
37528;DHT22;23372;52.050;4.810;2023-11-19T03:25:53;12.10;99.90
37528;DHT22;23372;52.050;4.810;2023-11-19T03:28:19;12.10;99.90
37528;DHT22;23372;52.050;4.810;2023-11-19T03:30:44;12.20;99.90
37528;DHT22;23372;52.050;4.810;2023-11-19T03:33:10;12.20;99.90
37528;DHT22;23372;52.050;4.810;2023-11-19T03:35:35;12.10;99.90
37528;DHT22;23372;52.050;4.810;2023-11-19T03:38:01;12.10;99.90
37528;DHT22;23372;52.050;4.810;2023-11-19T03:40:28;12.10;99.90
37528;DHT22;23372;52.050;4.810;2023-11-19T03:42:54;12.00;99.90
37528;DHT22;23372;52.050;4.810;2023-11-19T03:45:20;12.00;99.90
37528;DHT22;23372;52.050;4.810;2023-11-19T03:47:46;12.10;99.90
37528;DHT22;23372;52.050;4.810;2023-11-19T03:50:12;12.10;99.90
37528;DHT22;23372;52.050;4.810;2023-11-19T03:52:37;12.00;99.90
37528;DHT22;23372;52.050;4.810;2023-11-19T03:55:03;12.10;99.90
37528;DHT22;23372;52.050;4.810;2023-11-19T03:57:30;12.00;99.90
37528;DHT22;23372;52.050;4.810;2023-11-19T03:59:56;12.00;99.90
37528;DHT22;23372;52.050;4.810;2023-11-19T04:02:23;12.00;99.90
37528;DHT22;23372;52.050;4.810;2023-11-19T04:04:53;12.00;99.90
37528;DHT22;23372;52.050;4.810;2023-11-19T04:07:18;12.00;99.90
37528;DHT22;23372;52.050;4.810;2023-11-19T04:09:44;11.90;99.90
37528;DHT22;23372;52.050;4.810;2023-11-19T04:12:12;11.90;99.90
37528;DHT22;23372;52.050;4.810;2023-11-19T04:14:37;11.90;99.90
37528;DHT22;23372;52.050;4.810;2023-11-19T04:17:03;11.90;99.90
37528;DHT22;23372;52.050;4.810;2023-11-19T04:19:29;11.90;99.90
37528;DHT22;23372;52.050;4.810;2023-11-19T04:21:54;11.90;99.90
37528;DHT22;23372;52.050;4.810;2023-11-19T04:24:20;11.90;99.90
37528;DHT22;23372;52.050;4.810;2023-11-19T04:26:46;11.80;99.90
37528;DHT22;23372;52.050;4.810;2023-11-19T04:29:12;11.80;99.90
37528;DHT22;23372;52.050;4.810;2023-11-19T04:31:39;11.80;99.90
37528;DHT22;23372;52.050;4.810;2023-11-19T04:34:05;11.80;99.90
37528;DHT22;23372;52.050;4.810;2023-11-19T04:36:32;11.80;99.90
37528;DHT22;23372;52.050;4.810;2023-11-19T04:38:59;11.80;99.90
37528;DHT22;23372;52.050;4.810;2023-11-19T04:41:25;11.70;99.90
37528;DHT22;23372;52.050;4.810;2023-11-19T04:43:53;11.70;99.90
37528;DHT22;23372;52.050;4.810;2023-11-19T04:46:19;11.70;99.90
37528;DHT22;23372;52.050;4.810;2023-11-19T04:48:44;11.70;99.90
37528;DHT22;23372;52.050;4.810;2023-11-19T04:51:10;11.60;99.90
37528;DHT22;23372;52.050;4.810;2023-11-19T04:53:35;11.60;99.90
37528;DHT22;23372;52.050;4.810;2023-11-19T04:56:06;11.60;99.90
37528;DHT22;23372;52.050;4.810;2023-11-19T04:58:32;11.80;99.90
37528;DHT22;23372;52.050;4.810;2023-11-19T05:00:59;11.80;99.90
37528;DHT22;23372;52.050;4.810;2023-11-19T05:03:24;11.80;99.90
37528;DHT22;23372;52.050;4.810;2023-11-19T05:05:50;11.80;99.90
37528;DHT22;23372;52.050;4.810;2023-11-19T05:08:15;11.80;99.90
37528;DHT22;23372;52.050;4.810;2023-11-19T05:10:41;11.80;99.90
37528;DHT22;23372;52.050;4.810;2023-11-19T05:13:06;11.70;99.90
37528;DHT22;23372;52.050;4.810;2023-11-19T05:15:32;11.80;99.90
37528;DHT22;23372;52.050;4.810;2023-11-19T05:17:58;11.70;99.90
37528;DHT22;23372;52.050;4.810;2023-11-19T05:20:24;11.70;99.90
37528;DHT22;23372;52.050;4.810;2023-11-19T05:22:49;11.70;99.90
37528;DHT22;23372;52.050;4.810;2023-11-19T05:25:16;11.70;99.90
37528;DHT22;23372;52.050;4.810;2023-11-19T05:27:42;11.70;99.90
37528;DHT22;23372;52.050;4.810;2023-11-19T05:30:07;11.70;99.90
37528;DHT22;23372;52.050;4.810;2023-11-19T05:32:34;11.70;99.90
37528;DHT22;23372;52.050;4.810;2023-11-19T05:34:59;11.70;99.90
37528;DHT22;23372;52.050;4.810;2023-11-19T05:37:25;11.70;99.90
37528;DHT22;23372;52.050;4.810;2023-11-19T05:39:50;11.70;99.90
37528;DHT22;23372;52.050;4.810;2023-11-19T05:42:16;11.60;99.90
37528;DHT22;23372;52.050;4.810;2023-11-19T05:44:42;11.60;99.90
37528;DHT22;23372;52.050;4.810;2023-11-19T05:47:08;11.60;99.90
37528;DHT22;23372;52.050;4.810;2023-11-19T05:49:33;11.60;99.90
37528;DHT22;23372;52.050;4.810;2023-11-19T05:51:59;11.60;99.90
37528;DHT22;23372;52.050;4.810;2023-11-19T05:54:24;11.60;99.90
37528;DHT22;23372;52.050;4.810;2023-11-19T05:56:51;11.60;99.90
37528;DHT22;23372;52.050;4.810;2023-11-19T05:59:19;11.60;99.90
37528;DHT22;23372;52.050;4.810;2023-11-19T06:01:45;11.60;99.90
37528;DHT22;23372;52.050;4.810;2023-11-19T06:04:10;11.50;99.90
37528;DHT22;23372;52.050;4.810;2023-11-19T06:06:36;11.50;99.90
37528;DHT22;23372;52.050;4.810;2023-11-19T06:09:03;11.50;99.90
37528;DHT22;23372;52.050;4.810;2023-11-19T06:11:28;11.50;99.90
37528;DHT22;23372;52.050;4.810;2023-11-19T06:13:54;11.60;99.90
37528;DHT22;23372;52.050;4.810;2023-11-19T06:16:20;11.60;99.90
37528;DHT22;23372;52.050;4.810;2023-11-19T06:18:45;11.60;99.90
37528;DHT22;23372;52.050;4.810;2023-11-19T06:21:12;11.50;99.90
37528;DHT22;23372;52.050;4.810;2023-11-19T06:23:38;11.60;99.90
37528;DHT22;23372;52.050;4.810;2023-11-19T06:26:03;11.50;99.90
37528;DHT22;23372;52.050;4.810;2023-11-19T06:28:30;11.50;99.90
37528;DHT22;23372;52.050;4.810;2023-11-19T06:30:56;11.50;99.90
37528;DHT22;23372;52.050;4.810;2023-11-19T06:33:26;11.50;99.90
37528;DHT22;23372;52.050;4.810;2023-11-19T06:35:52;11.40;99.90
37528;DHT22;23372;52.050;4.810;2023-11-19T06:38:18;11.50;99.90
37528;DHT22;23372;52.050;4.810;2023-11-19T06:40:44;11.50;99.90
37528;DHT22;23372;52.050;4.810;2023-11-19T06:43:09;11.50;99.90
37528;DHT22;23372;52.050;4.810;2023-11-19T06:45:35;11.50;99.90
37528;DHT22;23372;52.050;4.810;2023-11-19T06:48:03;11.50;99.90
37528;DHT22;23372;52.050;4.810;2023-11-19T06:50:30;11.50;99.90
37528;DHT22;23372;52.050;4.810;2023-11-19T06:52:55;11.60;99.90
37528;DHT22;23372;52.050;4.810;2023-11-19T06:55:21;11.60;99.90
37528;DHT22;23372;52.050;4.810;2023-11-19T06:57:46;11.60;99.90
37528;DHT22;23372;52.050;4.810;2023-11-19T07:00:12;11.60;99.90
37528;DHT22;23372;52.050;4.810;2023-11-19T07:02:38;11.60;99.90
37528;DHT22;23372;52.050;4.810;2023-11-19T07:05:05;11.60;99.90
37528;DHT22;23372;52.050;4.810;2023-11-19T07:07:31;11.60;99.90
37528;DHT22;23372;52.050;4.810;2023-11-19T07:09:58;11.60;99.90
37528;DHT22;23372;52.050;4.810;2023-11-19T07:12:23;11.70;99.90
37528;DHT22;23372;52.050;4.810;2023-11-19T07:14:49;11.70;99.90
37528;DHT22;23372;52.050;4.810;2023-11-19T07:17:15;11.80;99.90
37528;DHT22;23372;52.050;4.810;2023-11-19T07:19:40;11.80;99.90
37528;DHT22;23372;52.050;4.810;2023-11-19T07:22:06;11.70;99.90
37528;DHT22;23372;52.050;4.810;2023-11-19T07:24:32;11.70;99.90
37528;DHT22;23372;52.050;4.810;2023-11-19T07:26:58;11.80;99.90
37528;DHT22;23372;52.050;4.810;2023-11-19T07:29:23;11.90;99.90
37528;DHT22;23372;52.050;4.810;2023-11-19T07:31:49;11.80;99.90
37528;DHT22;23372;52.050;4.810;2023-11-19T07:34:15;11.90;99.90
37528;DHT22;23372;52.050;4.810;2023-11-19T07:36:40;11.90;99.90
37528;DHT22;23372;52.050;4.810;2023-11-19T07:39:06;12.00;99.90
37528;DHT22;23372;52.050;4.810;2023-11-19T07:41:32;11.90;99.90
37528;DHT22;23372;52.050;4.810;2023-11-19T07:43:58;11.90;99.90
37528;DHT22;23372;52.050;4.810;2023-11-19T07:46:24;11.90;99.90
37528;DHT22;23372;52.050;4.810;2023-11-19T07:48:50;12.00;99.90
37528;DHT22;23372;52.050;4.810;2023-11-19T07:51:16;12.00;99.90
37528;DHT22;23372;52.050;4.810;2023-11-19T07:53:41;11.90;99.90
37528;DHT22;23372;52.050;4.810;2023-11-19T07:56:08;11.90;99.90
37528;DHT22;23372;52.050;4.810;2023-11-19T07:58:34;11.90;99.90
37528;DHT22;23372;52.050;4.810;2023-11-19T08:01:00;12.00;99.90
37528;DHT22;23372;52.050;4.810;2023-11-19T08:03:27;12.00;99.90
37528;DHT22;23372;52.050;4.810;2023-11-19T08:05:55;12.10;99.90
37528;DHT22;23372;52.050;4.810;2023-11-19T08:08:22;12.10;99.90
37528;DHT22;23372;52.050;4.810;2023-11-19T08:10:47;12.10;99.90
37528;DHT22;23372;52.050;4.810;2023-11-19T08:13:13;12.10;99.90
37528;DHT22;23372;52.050;4.810;2023-11-19T08:15:39;12.10;99.90
37528;DHT22;23372;52.050;4.810;2023-11-19T08:18:05;12.10;99.90
37528;DHT22;23372;52.050;4.810;2023-11-19T08:20:32;12.20;99.90
37528;DHT22;23372;52.050;4.810;2023-11-19T08:22:58;12.20;99.90
37528;DHT22;23372;52.050;4.810;2023-11-19T08:25:23;12.20;99.90
37528;DHT22;23372;52.050;4.810;2023-11-19T08:27:49;12.30;99.90
37528;DHT22;23372;52.050;4.810;2023-11-19T08:30:14;12.30;99.90
37528;DHT22;23372;52.050;4.810;2023-11-19T08:32:40;12.30;99.90
37528;DHT22;23372;52.050;4.810;2023-11-19T08:35:06;12.40;99.90
37528;DHT22;23372;52.050;4.810;2023-11-19T08:37:32;12.30;99.90
37528;DHT22;23372;52.050;4.810;2023-11-19T08:39:58;12.30;99.90
37528;DHT22;23372;52.050;4.810;2023-11-19T08:42:24;12.40;99.90
37528;DHT22;23372;52.050;4.810;2023-11-19T08:44:50;12.50;99.90
37528;DHT22;23372;52.050;4.810;2023-11-19T08:47:16;12.50;99.90
37528;DHT22;23372;52.050;4.810;2023-11-19T08:49:43;12.60;99.90
37528;DHT22;23372;52.050;4.810;2023-11-19T08:52:09;12.60;99.90
37528;DHT22;23372;52.050;4.810;2023-11-19T08:54:36;12.60;99.90
37528;DHT22;23372;52.050;4.810;2023-11-19T08:57:01;12.70;99.90
37528;DHT22;23372;52.050;4.810;2023-11-19T08:59:28;12.70;99.90
37528;DHT22;23372;52.050;4.810;2023-11-19T09:01:54;12.70;99.90
37528;DHT22;23372;52.050;4.810;2023-11-19T09:04:20;12.70;99.90
37528;DHT22;23372;52.050;4.810;2023-11-19T09:06:48;12.70;99.90
37528;DHT22;23372;52.050;4.810;2023-11-19T09:09:13;12.60;99.90
37528;DHT22;23372;52.050;4.810;2023-11-19T09:11:39;12.80;99.90
37528;DHT22;23372;52.050;4.810;2023-11-19T09:14:05;13.00;99.90
37528;DHT22;23372;52.050;4.810;2023-11-19T09:16:31;13.10;99.90
37528;DHT22;23372;52.050;4.810;2023-11-19T09:18:57;13.10;99.90
37528;DHT22;23372;52.050;4.810;2023-11-19T09:21:25;13.40;99.90
37528;DHT22;23372;52.050;4.810;2023-11-19T09:23:50;13.30;99.90
37528;DHT22;23372;52.050;4.810;2023-11-19T09:26:16;13.30;99.90
37528;DHT22;23372;52.050;4.810;2023-11-19T09:28:41;13.30;99.90
37528;DHT22;23372;52.050;4.810;2023-11-19T09:31:17;13.30;99.90
37528;DHT22;23372;52.050;4.810;2023-11-19T09:33:43;13.30;99.90
37528;DHT22;23372;52.050;4.810;2023-11-19T09:36:09;13.10;99.90
37528;DHT22;23372;52.050;4.810;2023-11-19T09:38:36;13.00;99.90
37528;DHT22;23372;52.050;4.810;2023-11-19T09:41:07;13.00;99.90
37528;DHT22;23372;52.050;4.810;2023-11-19T09:43:35;13.10;99.90
37528;DHT22;23372;52.050;4.810;2023-11-19T09:46:09;13.10;99.90
37528;DHT22;23372;52.050;4.810;2023-11-19T09:48:37;13.00;99.90
37528;DHT22;23372;52.050;4.810;2023-11-19T09:51:05;13.00;99.90
37528;DHT22;23372;52.050;4.810;2023-11-19T09:53:31;13.20;99.90
37528;DHT22;23372;52.050;4.810;2023-11-19T09:55:59;13.60;99.90
37528;DHT22;23372;52.050;4.810;2023-11-19T09:58:26;14.10;99.90
37528;DHT22;23372;52.050;4.810;2023-11-19T10:00:51;14.70;99.90
37528;DHT22;23372;52.050;4.810;2023-11-19T10:03:17;14.80;99.90
37528;DHT22;23372;52.050;4.810;2023-11-19T10:05:43;14.90;99.90
37528;DHT22;23372;52.050;4.810;2023-11-19T10:08:09;14.40;99.90
37528;DHT22;23372;52.050;4.810;2023-11-19T10:10:36;14.00;99.90
37528;DHT22;23372;52.050;4.810;2023-11-19T10:13:02;13.80;99.90
37528;DHT22;23372;52.050;4.810;2023-11-19T10:15:33;13.80;99.90
37528;DHT22;23372;52.050;4.810;2023-11-19T10:18:00;13.90;99.90
37528;DHT22;23372;52.050;4.810;2023-11-19T10:20:26;13.80;99.90
37528;DHT22;23372;52.050;4.810;2023-11-19T10:22:55;13.60;99.90
37528;DHT22;23372;52.050;4.810;2023-11-19T10:25:26;13.80;99.90
37528;DHT22;23372;52.050;4.810;2023-11-19T10:27:53;13.90;99.90
37528;DHT22;23372;52.050;4.810;2023-11-19T10:30:24;14.10;99.90
37528;DHT22;23372;52.050;4.810;2023-11-19T10:33:09;14.20;99.90
37528;DHT22;23372;52.050;4.810;2023-11-19T10:35:52;14.20;99.90
37528;DHT22;23372;52.050;4.810;2023-11-19T10:38:19;14.20;99.90
37528;DHT22;23372;52.050;4.810;2023-11-19T10:40:44;14.10;99.90
37528;DHT22;23372;52.050;4.810;2023-11-19T10:43:10;14.10;99.90
37528;DHT22;23372;52.050;4.810;2023-11-19T10:45:37;14.10;99.90
37528;DHT22;23372;52.050;4.810;2023-11-19T10:48:03;14.00;99.90
37528;DHT22;23372;52.050;4.810;2023-11-19T10:50:39;13.90;99.90
37528;DHT22;23372;52.050;4.810;2023-11-19T10:53:06;13.80;99.90
37528;DHT22;23372;52.050;4.810;2023-11-19T10:55:39;13.80;99.90
37528;DHT22;23372;52.050;4.810;2023-11-19T10:58:06;13.60;99.90
37528;DHT22;23372;52.050;4.810;2023-11-19T11:00:51;13.60;99.90
37528;DHT22;23372;52.050;4.810;2023-11-19T11:03:22;13.70;99.90
37528;DHT22;23372;52.050;4.810;2023-11-19T11:05:51;13.70;99.90
37528;DHT22;23372;52.050;4.810;2023-11-19T11:08:17;13.60;99.90
37528;DHT22;23372;52.050;4.810;2023-11-19T11:10:52;13.60;99.90
37528;DHT22;23372;52.050;4.810;2023-11-19T11:13:18;13.50;99.90
37528;DHT22;23372;52.050;4.810;2023-11-19T11:15:48;13.40;99.90
37528;DHT22;23372;52.050;4.810;2023-11-19T11:18:14;13.40;99.90
37528;DHT22;23372;52.050;4.810;2023-11-19T11:20:40;13.40;99.90
37528;DHT22;23372;52.050;4.810;2023-11-19T11:29:09;13.90;99.90
37528;DHT22;23372;52.050;4.810;2023-11-19T11:31:42;14.00;99.90
37528;DHT22;23372;52.050;4.810;2023-11-19T11:34:43;14.00;99.90
37528;DHT22;23372;52.050;4.810;2023-11-19T11:37:45;14.00;99.90
37528;DHT22;23372;52.050;4.810;2023-11-19T11:40:03;13.90;99.90
37528;DHT22;23372;52.050;4.810;2023-11-19T11:42:36;14.00;99.90
37528;DHT22;23372;52.050;4.810;2023-11-19T11:45:03;14.00;99.90
37528;DHT22;23372;52.050;4.810;2023-11-19T11:50:09;14.20;99.90
37528;DHT22;23372;52.050;4.810;2023-11-19T11:58:18;14.20;99.90
37528;DHT22;23372;52.050;4.810;2023-11-19T12:00:46;14.10;99.90
37528;DHT22;23372;52.050;4.810;2023-11-19T12:03:12;13.90;99.90
37528;DHT22;23372;52.050;4.810;2023-11-19T12:05:43;13.80;99.90
37528;DHT22;23372;52.050;4.810;2023-11-19T12:08:10;13.80;99.90
37528;DHT22;23372;52.050;4.810;2023-11-19T12:10:50;13.80;99.90
37528;DHT22;23372;52.050;4.810;2023-11-19T12:13:20;14.00;99.90
37528;DHT22;23372;52.050;4.810;2023-11-19T12:18:28;14.10;99.90
37528;DHT22;23372;52.050;4.810;2023-11-19T12:20:55;14.00;99.90
37528;DHT22;23372;52.050;4.810;2023-11-19T12:23:22;13.80;99.90
37528;DHT22;23372;52.050;4.810;2023-11-19T12:25:48;13.70;99.90
37528;DHT22;23372;52.050;4.810;2023-11-19T12:28:14;13.60;99.90
37528;DHT22;23372;52.050;4.810;2023-11-19T12:30:41;13.60;99.90
37528;DHT22;23372;52.050;4.810;2023-11-19T12:33:08;13.60;99.90
37528;DHT22;23372;52.050;4.810;2023-11-19T12:35:45;13.60;99.90
37528;DHT22;23372;52.050;4.810;2023-11-19T12:38:22;13.60;99.90
37528;DHT22;23372;52.050;4.810;2023-11-19T12:41:05;13.60;99.90
37528;DHT22;23372;52.050;4.810;2023-11-19T12:43:31;13.60;99.90
37528;DHT22;23372;52.050;4.810;2023-11-19T12:45:57;13.60;99.90
37528;DHT22;23372;52.050;4.810;2023-11-19T12:48:23;13.60;99.90
37528;DHT22;23372;52.050;4.810;2023-11-19T12:50:56;13.60;99.90
37528;DHT22;23372;52.050;4.810;2023-11-19T12:53:27;13.60;99.90
37528;DHT22;23372;52.050;4.810;2023-11-19T12:55:54;13.50;99.90
37528;DHT22;23372;52.050;4.810;2023-11-19T12:58:34;13.50;99.90
37528;DHT22;23372;52.050;4.810;2023-11-19T13:01:08;13.60;99.90
37528;DHT22;23372;52.050;4.810;2023-11-19T13:03:37;13.60;99.90
37528;DHT22;23372;52.050;4.810;2023-11-19T13:06:09;13.70;99.90
37528;DHT22;23372;52.050;4.810;2023-11-19T13:08:43;13.70;99.90
37528;DHT22;23372;52.050;4.810;2023-11-19T13:11:13;13.80;99.90
37528;DHT22;23372;52.050;4.810;2023-11-19T13:14:17;13.70;99.90
37528;DHT22;23372;52.050;4.810;2023-11-19T13:16:42;13.70;99.90
37528;DHT22;23372;52.050;4.810;2023-11-19T13:19:09;13.60;99.90
37528;DHT22;23372;52.050;4.810;2023-11-19T13:21:35;13.60;99.90
37528;DHT22;23372;52.050;4.810;2023-11-19T13:24:00;13.50;99.90
37528;DHT22;23372;52.050;4.810;2023-11-19T13:26:26;13.60;99.90
37528;DHT22;23372;52.050;4.810;2023-11-19T13:28:51;13.50;99.90
37528;DHT22;23372;52.050;4.810;2023-11-19T13:31:17;13.50;99.90
37528;DHT22;23372;52.050;4.810;2023-11-19T13:33:42;13.40;99.90
37528;DHT22;23372;52.050;4.810;2023-11-19T13:36:08;13.30;99.90
37528;DHT22;23372;52.050;4.810;2023-11-19T13:38:35;13.30;99.90
37528;DHT22;23372;52.050;4.810;2023-11-19T13:41:02;13.30;99.90
37528;DHT22;23372;52.050;4.810;2023-11-19T13:43:27;13.30;99.90
37528;DHT22;23372;52.050;4.810;2023-11-19T13:45:54;13.20;99.90
37528;DHT22;23372;52.050;4.810;2023-11-19T13:48:20;13.20;99.90
37528;DHT22;23372;52.050;4.810;2023-11-19T13:50:45;13.30;99.90
37528;DHT22;23372;52.050;4.810;2023-11-19T13:53:11;13.30;99.90
37528;DHT22;23372;52.050;4.810;2023-11-19T13:55:37;13.30;99.90
37528;DHT22;23372;52.050;4.810;2023-11-19T13:58:03;13.30;99.90
37528;DHT22;23372;52.050;4.810;2023-11-19T14:00:28;13.40;99.90
37528;DHT22;23372;52.050;4.810;2023-11-19T14:02:54;13.30;99.90
37528;DHT22;23372;52.050;4.810;2023-11-19T14:05:19;13.30;99.90
37528;DHT22;23372;52.050;4.810;2023-11-19T14:07:45;13.20;99.90
37528;DHT22;23372;52.050;4.810;2023-11-19T14:10:14;13.20;99.90
37528;DHT22;23372;52.050;4.810;2023-11-19T14:12:41;13.20;99.90
37528;DHT22;23372;52.050;4.810;2023-11-19T14:15:08;13.20;99.90
37528;DHT22;23372;52.050;4.810;2023-11-19T14:17:42;13.10;99.90
37528;DHT22;23372;52.050;4.810;2023-11-19T14:20:09;13.10;99.90
37528;DHT22;23372;52.050;4.810;2023-11-19T14:22:43;13.10;99.90
37528;DHT22;23372;52.050;4.810;2023-11-19T14:25:09;13.00;99.90
37528;DHT22;23372;52.050;4.810;2023-11-19T14:27:39;13.00;99.90
37528;DHT22;23372;52.050;4.810;2023-11-19T14:30:06;13.00;99.90
37528;DHT22;23372;52.050;4.810;2023-11-19T14:32:32;12.90;99.90
37528;DHT22;23372;52.050;4.810;2023-11-19T14:34:58;13.00;99.90
37528;DHT22;23372;52.050;4.810;2023-11-19T14:37:24;13.00;99.90
37528;DHT22;23372;52.050;4.810;2023-11-19T14:39:49;13.00;99.90
37528;DHT22;23372;52.050;4.810;2023-11-19T14:42:18;13.00;99.90
37528;DHT22;23372;52.050;4.810;2023-11-19T14:44:43;12.90;99.90
37528;DHT22;23372;52.050;4.810;2023-11-19T14:47:09;13.00;99.90
37528;DHT22;23372;52.050;4.810;2023-11-19T14:49:35;13.00;99.90
37528;DHT22;23372;52.050;4.810;2023-11-19T14:52:02;13.10;99.90
37528;DHT22;23372;52.050;4.810;2023-11-19T14:54:28;13.10;99.90
37528;DHT22;23372;52.050;4.810;2023-11-19T14:56:54;13.20;99.90
37528;DHT22;23372;52.050;4.810;2023-11-19T14:59:19;13.20;99.90
37528;DHT22;23372;52.050;4.810;2023-11-19T15:01:45;13.20;99.90
37528;DHT22;23372;52.050;4.810;2023-11-19T15:04:11;13.30;99.90
37528;DHT22;23372;52.050;4.810;2023-11-19T15:06:37;13.20;99.90
37528;DHT22;23372;52.050;4.810;2023-11-19T15:09:03;13.20;99.90
37528;DHT22;23372;52.050;4.810;2023-11-19T15:11:29;13.10;99.90
37528;DHT22;23372;52.050;4.810;2023-11-19T15:13:55;13.10;99.90
37528;DHT22;23372;52.050;4.810;2023-11-19T15:16:20;13.10;99.90
37528;DHT22;23372;52.050;4.810;2023-11-19T15:18:51;13.10;99.90
37528;DHT22;23372;52.050;4.810;2023-11-19T15:21:17;13.10;99.90
37528;DHT22;23372;52.050;4.810;2023-11-19T15:23:43;13.10;99.90
37528;DHT22;23372;52.050;4.810;2023-11-19T15:26:09;13.10;99.90
37528;DHT22;23372;52.050;4.810;2023-11-19T15:28:36;13.00;99.90
37528;DHT22;23372;52.050;4.810;2023-11-19T15:31:02;13.10;99.90
37528;DHT22;23372;52.050;4.810;2023-11-19T15:33:28;13.00;99.90
37528;DHT22;23372;52.050;4.810;2023-11-19T15:35:53;13.00;99.90
37528;DHT22;23372;52.050;4.810;2023-11-19T15:38:19;12.90;99.90
37528;DHT22;23372;52.050;4.810;2023-11-19T15:40:45;12.90;99.90
37528;DHT22;23372;52.050;4.810;2023-11-19T15:43:11;12.90;99.90
37528;DHT22;23372;52.050;4.810;2023-11-19T15:45:36;12.90;99.90